Time;durP1;ratioP1;P1;durP2;ratioP2;P2;SDS_P1;SDS_P2;PMS_P1;PMS_P2;Temp;Humidity;BMP_temperature;BMP_pressure;BME280_temperature;BME280_humidity;BME280_pressure;Samples;Min_cycle;Max_cycle;Signal;HPM_P1;HPM_P2
2022/10/31 00:02:30;;;;;;;15.97;2.80;;;;;;;10.76;90.76;96968.56;10493392;28;20580;-74
2022/10/31 00:07:30;;;;;;;8.70;1.90;;;;;;;10.94;89.56;96961.50;10492474;28;20219;-74
2022/10/31 00:12:31;;;;;;;5.00;1.90;;;;;;;11.11;87.63;96959.00;10491361;28;20191;-74
2022/10/31 00:17:35;;;;;;;10.40;2.07;;;;;;;10.98;88.42;96962.00;10492534;28;20764;-74
2022/10/31 00:22:35;;;;;;;3.77;2.00;;;;;;;10.91;89.02;96967.03;10492495;28;20578;-74
2022/10/31 00:27:35;;;;;;;7.80;1.87;;;;;;;10.93;88.55;96975.56;10491530;28;20552;-74
2022/10/31 00:32:36;;;;;;;9.03;2.10;;;;;;;10.97;88.17;96974.28;10474292;28;20187;-74
2022/10/31 00:37:36;;;;;;;15.43;1.87;;;;;;;11.04;87.81;96971.88;10473123;28;20218;-73
2022/10/31 00:42:37;;;;;;;3.00;1.60;;;;;;;10.85;88.61;96976.31;10473377;28;20187;-73
2022/10/31 00:47:37;;;;;;;8.77;2.20;;;;;;;10.71;89.66;96985.53;10491453;28;20226;-73
2022/10/31 00:52:37;;;;;;;10.37;1.80;;;;;;;10.70;90.14;96997.03;10491162;28;20288;-73
2022/10/31 00:57:38;;;;;;;7.00;1.80;;;;;;;10.64;90.60;96995.00;10491188;28;20195;-73
2022/10/31 01:02:40;;;;;;;7.03;2.10;;;;;;;10.48;91.48;97000.09;10490215;28;20211;-73
2022/10/31 01:07:41;;;;;;;6.33;1.87;;;;;;;10.42;92.54;97008.53;10473183;28;20293;-73
2022/10/31 01:12:47;;;;;;;3.83;2.07;;;;;;;10.31;93.56;97002.50;10491008;28;20242;-73
2022/10/31 01:17:48;;;;;;;11.33;1.90;;;;;;;10.23;94.83;97012.88;10472437;28;20525;-73
2022/10/31 01:22:49;;;;;;;4.63;2.00;;;;;;;10.16;95.28;97011.81;10472720;28;20187;-74
2022/10/31 01:27:49;;;;;;;6.93;2.03;;;;;;;10.08;96.32;97011.75;10490068;28;20210;-73
2022/10/31 01:32:49;;;;;;;4.43;1.90;;;;;;;10.23;95.67;97002.41;10472367;28;20195;-73
2022/10/31 01:37:50;;;;;;;8.60;2.43;;;;;;;10.04;97.19;97018.22;10471863;28;20555;-74
2022/10/31 01:42:50;;;;;;;3.37;1.73;;;;;;;10.09;96.81;97013.38;10471568;28;20195;-73
2022/10/31 01:47:51;;;;;;;5.50;2.00;;;;;;;10.09;97.80;97013.38;10472494;28;20638;-74
2022/10/31 01:52:52;;;;;;;7.30;2.40;;;;;;;10.12;97.51;97016.53;10490010;28;20314;-73
2022/10/31 01:57:55;;;;;;;7.70;1.80;;;;;;;10.05;98.17;97018.06;10455265;28;20304;-74
2022/10/31 02:02:55;;;;;;;6.77;2.03;;;;;;;10.06;97.76;97017.13;10488473;28;20270;-74
2022/10/31 02:08:00;;;;;;;10.07;2.57;;;;;;;9.96;98.81;97025.00;10471073;28;20219;-74
2022/10/31 02:13:05;;;;;;;9.10;2.20;;;;;;;10.01;99.00;97027.19;10476580;28;20711;-73
2022/10/31 02:18:10;;;;;;;7.80;2.00;;;;;;;9.78;100.00;97032.78;10479074;28;20226;-73
2022/10/31 02:23:29;;;;;;;5.10;2.23;;;;;;;9.73;100.00;97024.53;10462054;28;20207;-74
2022/10/31 02:28:32;;;;;;;4.57;2.40;;;;;;;9.68;100.00;97031.16;10495348;28;20215;-74
2022/10/31 02:33:41;;;;;;;6.30;2.90;;;;;;;9.70;100.00;97034.47;10494741;28;20187;-74
2022/10/31 02:39:18;;;;;;;4.30;2.13;;;;;;;9.63;100.00;97037.66;10478571;28;20237;-74
2022/10/31 02:44:30;;;;;;;7.40;2.73;;;;;;;9.75;100.00;97033.06;10477529;28;20198;-74
2022/10/31 02:49:36;;;;;;;8.50;2.07;;;;;;;9.71;100.00;97036.09;10494874;28;20188;-73
2022/10/31 02:54:36;;;;;;;6.07;2.27;;;;;;;9.72;100.00;97040.38;10494113;28;20235;-73
2022/10/31 02:59:39;;;;;;;6.60;2.10;;;;;;;9.80;100.00;97045.72;10495489;28;20190;-73
2022/10/31 03:05:09;;;;;;;3.33;1.90;;;;;;;9.73;100.00;97040.25;10460384;28;20200;-73
2022/10/31 03:10:17;;;;;;;12.43;2.60;;;;;;;9.69;100.00;97051.13;10476574;28;20191;-73
2022/10/31 03:15:29;;;;;;;7.43;2.30;;;;;;;9.58;100.00;97060.78;10459969;28;20217;-73
2022/10/31 03:20:52;;;;;;;7.47;2.27;;;;;;;9.48;100.00;97052.16;10489197;28;20191;-74
2022/10/31 03:25:53;;;;;;;6.83;2.20;;;;;;;9.37;100.00;97052.31;10475116;28;20242;-74
2022/10/31 03:31:00;;;;;;;7.73;2.90;;;;;;;9.39;100.00;97053.81;10460438;28;20599;-74
2022/10/31 03:36:04;;;;;;;6.17;2.13;;;;;;;9.53;100.00;97064.81;10459874;28;20203;-75
2022/10/31 03:41:07;;;;;;;6.37;2.67;;;;;;;9.52;100.00;97057.94;10458902;28;20218;-74
2022/10/31 03:46:07;;;;;;;9.37;2.13;;;;;;;9.61;100.00;97054.47;10458424;28;20234;-74
2022/10/31 03:51:22;;;;;;;7.67;2.50;;;;;;;9.55;100.00;97055.84;10475613;28;20238;-74
2022/10/31 03:56:33;;;;;;;8.83;2.73;;;;;;;9.23;100.00;97070.09;10474973;28;20227;-74
2022/10/31 04:01:38;;;;;;;8.93;3.07;;;;;;;9.21;100.00;97058.94;10458108;28;20240;-74
2022/10/31 04:06:40;;;;;;;7.67;2.70;;;;;;;9.06;100.00;97073.41;10452693;28;20246;-73
2022/10/31 04:11:45;;;;;;;4.13;2.33;;;;;;;8.96;100.00;97077.78;10450308;28;20761;-74
2022/10/31 04:17:17;;;;;;;10.07;2.70;;;;;;;8.95;100.00;97070.94;10395755;28;20265;-74
2022/10/31 04:22:19;;;;;;;10.13;2.87;;;;;;;9.07;100.00;97062.81;10467675;28;20230;-74
2022/10/31 04:27:19;;;;;;;8.50;2.20;;;;;;;9.05;100.00;97080.41;10466430;28;20215;-73
2022/10/31 04:32:19;;;;;;;8.07;2.27;;;;;;;9.15;100.00;97077.78;10466296;28;20199;-74
2022/10/31 04:37:20;;;;;;;8.47;2.70;;;;;;;9.03;100.00;97079.72;10465684;28;20215;-74
2022/10/31 04:42:22;;;;;;;8.30;2.13;;;;;;;8.96;100.00;97078.63;10465912;28;20218;-74
2022/10/31 04:47:22;;;;;;;8.03;2.13;;;;;;;8.78;100.00;97070.63;10466297;28;20590;-74
2022/10/31 04:52:23;;;;;;;7.87;2.07;;;;;;;8.92;100.00;97067.59;10466380;28;20230;-74
2022/10/31 04:57:25;;;;;;;12.33;2.60;;;;;;;8.91;100.00;97075.59;10465265;28;20723;-74
2022/10/31 05:02:25;;;;;;;5.57;2.57;;;;;;;8.82;100.00;97076.41;10469522;28;20390;-74
2022/10/31 05:07:29;;;;;;;5.83;2.30;;;;;;;9.03;100.00;97078.91;10472793;28;20582;-74
2022/10/31 05:12:30;;;;;;;5.63;2.37;;;;;;;9.10;100.00;97069.56;10472869;28;20215;-75
2022/10/31 05:17:36;;;;;;;9.87;2.70;;;;;;;9.37;100.00;97060.16;10489887;28;20704;-74
2022/10/31 05:22:57;;;;;;;4.57;2.40;;;;;;;9.45;100.00;97060.28;10489426;28;20223;-74
2022/10/31 05:27:58;;;;;;;11.73;2.63;;;;;;;9.39;100.00;97069.50;10471033;28;20230;-74
2022/10/31 05:32:59;;;;;;;7.37;2.47;;;;;;;9.08;100.00;97072.31;10472028;28;20265;-74
2022/10/31 05:38:18;;;;;;;5.73;2.53;;;;;;;8.84;100.00;97072.69;10491041;28;20238;-74
2022/10/31 05:43:19;;;;;;;14.70;2.73;;;;;;;8.67;100.00;97074.19;10472070;28;20198;-74
2022/10/31 05:48:19;;;;;;;5.83;2.63;;;;;;;8.73;100.00;97078.88;10495515;28;20215;-74
2022/10/31 05:53:38;;;;;;;6.63;2.73;;;;;;;8.71;100.00;97090.41;10497651;28;20667;-74
2022/10/31 05:58:39;;;;;;;10.70;3.23;;;;;;;8.83;100.00;97088.50;10480485;28;20655;-74
2022/10/31 06:03:41;;;;;;;6.53;2.60;;;;;;;8.77;100.00;97095.09;10479595;28;20195;-73
2022/10/31 06:08:43;;;;;;;8.13;2.80;;;;;;;9.05;100.00;97095.25;10480026;28;20207;-74
2022/10/31 06:13:48;;;;;;;11.93;2.40;;;;;;;9.17;100.00;97095.94;10477718;28;20196;-74
2022/10/31 06:19:03;;;;;;;9.90;3.80;;;;;;;9.12;100.00;97093.75;10479549;28;20211;-73
2022/10/31 06:24:03;;;;;;;8.97;2.63;;;;;;;9.08;100.00;97097.59;10496632;28;20218;-73
2022/10/31 06:29:30;;;;;;;9.03;2.90;;;;;;;9.06;100.00;97110.78;10472461;28;20542;-73
2022/10/31 06:34:41;;;;;;;5.67;3.07;;;;;;;9.25;100.00;97119.63;10478562;28;20183;-73
2022/10/31 06:39:43;;;;;;;5.47;2.63;;;;;;;9.24;100.00;97118.78;10478159;28;20230;-74
2022/10/31 06:44:45;;;;;;;10.70;2.90;;;;;;;9.33;100.00;97124.16;10464105;28;20269;-73
2022/10/31 06:50:04;;;;;;;7.50;2.80;;;;;;;9.34;100.00;97125.78;10497806;28;20195;-73
2022/10/31 06:55:05;;;;;;;10.30;3.10;;;;;;;9.40;100.00;97122.63;10423126;28;20324;-73
2022/10/31 07:00:08;;;;;;;14.00;4.00;;;;;;;9.75;100.00;97126.44;10415795;28;20200;-73
2022/10/31 07:05:17;;;;;;;13.60;3.20;;;;;;;10.13;100.00;97124.69;10411630;28;20209;-73
2022/10/31 07:10:17;;;;;;;7.10;2.93;;;;;;;10.63;100.00;97123.53;10411526;28;20180;-74
2022/10/31 07:15:29;;;;;;;9.73;2.97;;;;;;;10.76;100.00;97120.56;10411319;28;20185;-74
2022/10/31 07:20:32;;;;;;;7.63;3.07;;;;;;;10.76;100.00;97123.97;10411591;28;20212;-74
2022/10/31 07:25:33;;;;;;;7.63;3.00;;;;;;;11.32;100.00;97119.44;10409900;28;20239;-73
2022/10/31 07:30:52;;;;;;;9.40;3.50;;;;;;;11.53;100.00;97129.63;10411191;28;20193;-74
2022/10/31 07:35:54;;;;;;;7.57;2.90;;;;;;;11.75;100.00;97122.25;10409494;28;20205;-74
2022/10/31 07:40:57;;;;;;;6.30;2.87;;;;;;;11.87;100.00;97130.69;10410677;28;20192;-74
2022/10/31 07:45:59;;;;;;;4.35;2.80;;;;;;;12.31;100.00;97114.84;10409433;28;20220;-74
2022/10/31 07:51:18;;;;;;;11.82;3.50;;;;;;;12.32;99.65;97106.00;10429469;28;20227;-74
2022/10/31 07:56:54;;;;;;;7.10;2.72;;;;;;;12.89;95.66;97105.34;10393706;28;20195;-74
2022/10/31 08:01:54;;;;;;;9.20;3.13;;;;;;;13.38;94.98;97107.25;10478842;28;20195;-73
2022/10/31 08:07:21;;;;;;;11.23;3.28;;;;;;;14.26;90.35;97084.56;10506090;28;20230;-73
2022/10/31 08:12:28;;;;;;;6.75;3.38;;;;;;;14.85;86.32;97068.28;10500918;28;20187;-74
2022/10/31 08:17:29;;;;;;;6.85;3.63;;;;;;;14.99;84.93;97061.44;10516154;28;20182;-74
2022/10/31 08:22:32;;;;;;;8.63;3.72;;;;;;;15.52;82.45;97051.78;10516289;28;20947;-74
2022/10/31 08:27:33;;;;;;;10.93;4.47;;;;;;;15.88;80.61;97039.75;10499087;28;20647;-73
2022/10/31 08:32:35;;;;;;;12.05;4.32;;;;;;;16.66;78.23;97032.16;10515446;28;20197;-73
2022/10/31 08:37:55;;;;;;;12.75;4.25;;;;;;;17.54;73.80;96997.53;10534401;28;20650;-73
2022/10/31 08:43:04;;;;;;;6.90;3.50;;;;;;;17.91;73.14;97006.13;10515075;28;20187;-74
2022/10/31 08:48:09;;;;;;;11.10;3.22;;;;;;;18.79;69.12;96975.41;10515332;28;20493;-73
2022/10/31 08:53:13;;;;;;;11.25;3.30;;;;;;;18.80;68.90;96985.81;10514546;28;20262;-74
2022/10/31 08:58:18;;;;;;;9.05;3.63;;;;;;;19.93;64.56;96953.06;10515180;28;20179;-74
2022/10/31 09:03:25;;;;;;;13.50;3.25;;;;;;;21.40;61.34;96921.22;10514993;28;20189;-75
2022/10/31 09:08:29;;;;;;;9.80;2.97;;;;;;;22.07;58.51;96902.66;10515059;28;20302;-74
2022/10/31 09:13:29;;;;;;;7.05;2.97;;;;;;;22.62;55.62;96875.00;10514320;28;20183;-74
2022/10/31 09:18:48;;;;;;;12.88;3.22;;;;;;;23.47;52.26;96863.03;10532861;28;20190;-74
2022/10/31 09:23:52;;;;;;;9.38;3.17;;;;;;;23.66;52.77;96890.47;10513505;28;20187;-73
2022/10/31 09:28:53;;;;;;;12.57;3.80;;;;;;;22.91;53.81;96891.16;10514328;28;20591;-74
2022/10/31 09:33:54;;;;;;;9.75;4.40;;;;;;;23.22;52.79;96883.91;10514217;28;20191;-75
2022/10/31 09:39:10;;;;;;;11.85;3.53;;;;;;;24.88;48.68;96855.47;10532530;28;20620;-74
2022/10/31 09:44:30;;;;;;;10.90;3.42;;;;;;;26.38;46.70;96850.13;10513890;28;20187;-74
2022/10/31 09:49:43;;;;;;;6.70;3.25;;;;;;;26.47;44.64;96821.72;10498559;28;20287;-74
2022/10/31 09:54:57;;;;;;;8.23;3.13;;;;;;;26.39;45.41;96830.25;10513212;28;20245;-74
2022/10/31 09:59:57;;;;;;;12.20;3.35;;;;;;;26.37;43.82;96789.41;10497628;28;20272;-74
2022/10/31 10:05:04;;;;;;;11.57;3.40;;;;;;;26.81;44.51;96837.59;10496346;28;20267;-74
2022/10/31 10:10:25;;;;;;;8.60;3.28;;;;;;;27.56;43.23;96831.34;10497481;28;20251;-74
2022/10/31 10:16:18;;;;;;;9.73;3.30;;;;;;;28.23;39.82;96766.91;10499116;28;20194;-74
2022/10/31 10:21:33;;;;;;;10.40;3.00;;;;;;;29.50;39.25;96791.25;10527402;28;20215;-74
2022/10/31 10:26:40;;;;;;;9.15;2.58;;;;;;;28.62;39.44;96777.16;10530850;28;20616;-74
2022/10/31 10:31:42;;;;;;;12.55;3.45;;;;;;;27.13;42.85;96809.84;10531414;28;20606;-74
2022/10/31 10:36:49;;;;;;;11.60;5.82;;;;;;;27.48;42.29;96797.66;10537522;28;20199;-74
2022/10/31 10:53:00;;;;;;;11.57;3.47;;;;;;;30.11;36.92;96741.50;10537851;28;20238;-75
2022/10/31 10:58:08;;;;;;;8.02;3.40;;;;;;;27.66;41.41;96766.78;10503891;28;20207;-72
2022/10/31 11:03:10;;;;;;;11.35;3.25;;;;;;;26.59;43.57;96770.50;10519784;28;20273;-73
2022/10/31 11:08:11;;;;;;;12.45;3.63;;;;;;;28.46;40.29;96779.03;10536686;28;20222;-72
2022/10/31 11:13:11;;;;;;;10.43;3.33;;;;;;;28.42;41.55;96797.63;10536889;28;20199;-74
2022/10/31 11:18:20;;;;;;;11.30;3.33;;;;;;;28.16;41.13;96782.50;10536981;28;20226;-73
2022/10/31 11:23:22;;;;;;;9.10;3.42;;;;;;;28.39;39.58;96746.16;10518523;28;20280;-73
2022/10/31 11:28:23;;;;;;;7.95;3.58;;;;;;;28.60;39.79;96752.34;10518507;28;20280;-73
2022/10/31 11:33:32;;;;;;;6.95;2.78;;;;;;;28.67;40.07;96755.59;10535993;28;20601;-73
2022/10/31 11:38:40;;;;;;;10.98;3.78;;;;;;;28.34;41.13;96765.03;10536205;28;20217;-74
2022/10/31 11:43:49;;;;;;;10.63;3.10;;;;;;;28.24;41.38;96769.31;10517141;28;20287;-73
2022/10/31 11:48:53;;;;;;;6.60;3.03;;;;;;;27.96;41.87;96765.25;10518049;28;20283;-73
2022/10/31 11:53:57;;;;;;;9.25;3.47;;;;;;;28.83;41.60;96781.44;10537079;28;20372;-74
2022/10/31 11:59:04;;;;;;;8.43;3.17;;;;;;;29.29;40.77;96777.03;10536868;28;20555;-73
2022/10/31 12:04:09;;;;;;;7.50;3.60;;;;;;;29.41;39.91;96730.84;10527706;28;20183;-74
2022/10/31 12:15:55;;;;;;;10.73;3.15;;;;;;;28.92;41.76;96748.53;10434170;28;20598;-74
2022/10/31 12:21:12;;;;;;;14.55;3.47;;;;;;;27.94;42.06;96721.59;10480081;28;20190;-74
2022/10/31 12:26:22;;;;;;;7.45;2.78;;;;;;;29.43;40.60;96745.66;10491643;28;20714;-73
2022/10/31 12:31:53;;;;;;;11.52;3.40;;;;;;;29.61;41.02;96751.53;10474330;28;20553;-73
2022/10/31 12:37:05;;;;;;;7.65;2.88;;;;;;;29.32;42.12;96760.28;10491865;28;20203;-73
2022/10/31 12:42:45;;;;;;;14.52;5.93;;;;;;;28.57;43.41;96759.06;10492326;28;20218;-73
2022/10/31 12:47:59;;;;;;;11.60;3.65;;;;;;;29.97;41.56;96756.72;10480763;28;20234;-74
2022/10/31 12:53:26;;;;;;;12.23;3.53;;;;;;;29.63;42.04;96752.88;10456717;28;20262;-76
2022/10/31 12:58:33;;;;;;;8.98;3.30;;;;;;;28.76;43.56;96753.13;10491151;28;20278;-74
2022/10/31 13:03:38;;;;;;;9.02;3.15;;;;;;;28.86;42.90;96733.44;10493148;28;20187;-76
2022/10/31 13:09:01;;;;;;;12.00;3.80;;;;;;;29.48;42.67;96748.34;10509854;28;20233;-75
2022/10/31 13:14:14;;;;;;;8.05;3.63;;;;;;;28.68;43.57;96737.53;10497845;28;20194;-73
2022/10/31 13:19:41;;;;;;;8.60;3.45;;;;;;;27.73;44.33;96701.91;10474884;28;20183;-74
2022/10/31 13:25:26;;;;;;;9.45;4.32;;;;;;;28.36;44.63;96744.81;10445919;28;20203;-74
2022/10/31 13:36:28;;;;;;;6.03;4.05;;;;;;;27.15;47.68;96763.84;10368967;28;20211;-74
2022/10/31 13:41:51;;;;;;;10.98;4.85;;;;;;;27.33;47.47;96762.63;10472811;28;20624;-74
2022/10/31 13:46:53;;;;;;;12.63;4.18;;;;;;;26.93;47.67;96755.97;10505755;28;20218;-74
2022/10/31 13:52:11;;;;;;;12.45;3.80;;;;;;;27.89;46.27;96759.31;10513431;28;20664;-74
2022/10/31 13:57:32;;;;;;;11.93;3.70;;;;;;;27.84;46.40;96749.34;10513645;28;20195;-74
2022/10/31 14:02:34;;;;;;;12.57;4.20;;;;;;;27.17;47.03;96734.84;10531918;28;20201;-73
2022/10/31 14:07:42;;;;;;;12.98;4.40;;;;;;;27.04;47.50;96736.94;10533874;28;20226;-74
2022/10/31 14:12:44;;;;;;;12.25;4.00;;;;;;;27.04;47.13;96726.19;10521464;28;20715;-73
2022/10/31 14:17:58;;;;;;;10.15;3.88;;;;;;;27.05;47.19;96729.69;10503764;28;20608;-75
2022/10/31 14:22:58;;;;;;;12.13;4.30;;;;;;;26.28;48.46;96727.31;10497794;28;20195;-74
2022/10/31 14:28:34;;;;;;;10.25;4.85;;;;;;;26.24;49.14;96742.28;10484575;28;20215;-73
2022/10/31 14:33:34;;;;;;;9.13;4.57;;;;;;;25.89;49.43;96735.50;10494905;28;20199;-75
2022/10/31 14:38:55;;;;;;;15.02;4.70;;;;;;;25.13;51.03;96743.50;10480089;28;20744;-75
2022/10/31 14:44:17;;;;;;;9.43;4.25;;;;;;;23.68;54.65;96775.22;10494729;28;20217;-75
2022/10/31 14:49:34;;;;;;;11.43;5.20;;;;;;;19.90;66.87;96905.63;10478032;28;20750;-75
2022/10/31 14:54:39;;;;;;;16.23;8.40;;;;;;;19.40;68.51;96886.75;10415565;28;20244;-75
2022/10/31 14:59:43;;;;;;;25.48;15.13;;;;;;;18.58;71.44;96862.31;10413516;28;20176;-75
2022/10/31 15:04:45;;;;;;;14.37;6.97;;;;;;;18.39;74.17;96875.34;10412691;28;20288;-75
2022/10/31 15:09:55;;;;;;;13.70;5.90;;;;;;;17.26;79.05;96888.97;10412893;28;20192;-75
2022/10/31 15:14:56;;;;;;;11.00;5.47;;;;;;;16.34;84.81;96896.75;10394675;28;20192;-75
2022/10/31 15:19:57;;;;;;;15.68;6.10;;;;;;;15.80;92.99;96895.38;10448308;28;20261;-75
2022/10/31 15:25:44;;;;;;;12.32;6.50;;;;;;;15.01;99.81;96887.97;10450111;28;20534;-76
2022/10/31 15:31:25;;;;;;;11.70;6.15;;;;;;;15.13;99.14;96883.06;10449347;28;20255;-77
2022/10/31 15:36:29;;;;;;;13.85;7.65;;;;;;;14.11;100.00;96884.22;10323598;28;20259;-75
2022/10/31 15:41:39;;;;;;;14.45;6.45;;;;;;;13.98;100.00;96870.78;10344783;28;20204;-75
2022/10/31 15:46:39;;;;;;;16.17;6.97;;;;;;;13.58;100.00;96876.09;10444685;28;20667;-75
2022/10/31 15:51:40;;;;;;;21.27;10.60;;;;;;;12.70;100.00;96879.59;10435866;28;20329;-75
2022/10/31 15:56:43;;;;;;;71.38;44.55;;;;;;;12.80;100.00;96870.53;10493355;28;20289;-75
2022/10/31 16:02:01;;;;;;;35.83;19.60;;;;;;;13.17;100.00;96869.16;10493469;28;20538;-75
2022/10/31 16:07:13;;;;;;;25.23;12.68;;;;;;;13.18;100.00;96872.59;10492722;28;20223;-75
2022/10/31 16:12:14;;;;;;;21.70;9.90;;;;;;;13.12;100.00;96865.38;10493057;28;20195;-75
2022/10/31 16:17:17;;;;;;;12.43;7.50;;;;;;;12.96;100.00;96863.63;10492712;28;20707;-75
2022/10/31 16:22:25;;;;;;;14.90;7.30;;;;;;;12.71;100.00;96854.94;10492790;28;20195;-75
2022/10/31 16:27:28;;;;;;;16.65;7.63;;;;;;;12.71;100.00;96860.19;10492596;28;20219;-75
2022/10/31 16:32:52;;;;;;;15.45;8.27;;;;;;;12.49;100.00;96860.69;10491576;28;20671;-75
2022/10/31 16:37:53;;;;;;;18.08;9.00;;;;;;;12.39;100.00;96857.44;10491858;28;20211;-75
2022/10/31 16:42:53;;;;;;;17.15;8.80;;;;;;;12.27;100.00;96864.81;10474140;28;20195;-75
2022/10/31 16:48:02;;;;;;;19.73;10.52;;;;;;;12.21;100.00;96864.66;10467585;28;20240;-75
2022/10/31 16:53:03;;;;;;;23.50;9.80;;;;;;;12.03;100.00;96856.91;10530973;28;20742;-74
2022/10/31 16:58:03;;;;;;;22.37;9.30;;;;;;;11.97;100.00;96862.81;10527970;28;20198;-75
2022/10/31 17:03:04;;;;;;;18.60;8.43;;;;;;;11.92;100.00;96848.34;10507785;28;20197;-75
2022/10/31 17:08:05;;;;;;;25.23;9.48;;;;;;;11.85;100.00;96859.63;10490722;28;20310;-75
2022/10/31 17:13:09;;;;;;;18.15;8.65;;;;;;;11.79;100.00;96858.44;10491316;28;20206;-75
2022/10/31 17:18:12;;;;;;;18.80;8.68;;;;;;;11.58;100.00;96840.53;10472860;28;20716;-75
2022/10/31 17:23:14;;;;;;;16.60;8.15;;;;;;;11.64;100.00;96841.69;10490768;28;20183;-74
2022/10/31 17:28:15;;;;;;;16.02;9.07;;;;;;;11.55;100.00;96833.00;10490515;28;20799;-75
2022/10/31 17:33:16;;;;;;;13.82;7.93;;;;;;;11.62;100.00;96830.53;10490602;28;20197;-75
2022/10/31 17:38:16;;;;;;;15.38;7.90;;;;;;;11.52;100.00;96825.44;10500846;28;20195;-74
2022/10/31 17:43:16;;;;;;;25.73;9.35;;;;;;;11.49;100.00;96825.75;10495488;28;20563;-74
2022/10/31 17:48:17;;;;;;;16.48;8.20;;;;;;;11.30;100.00;96821.56;10499080;28;20219;-74
2022/10/31 17:53:17;;;;;;;18.13;8.60;;;;;;;11.18;100.00;96816.63;10497843;28;20567;-74
2022/10/31 17:58:17;;;;;;;15.03;8.53;;;;;;;11.19;100.00;96818.28;10498435;28;20279;-74
2022/10/31 18:03:18;;;;;;;17.63;8.53;;;;;;;11.15;100.00;96808.22;10479807;28;20195;-75
2022/10/31 18:08:18;;;;;;;18.20;9.10;;;;;;;10.98;100.00;96808.19;10479706;28;20211;-74
2022/10/31 18:13:19;;;;;;;14.43;8.05;;;;;;;11.02;100.00;96809.50;10497075;28;20751;-74
2022/10/31 18:18:19;;;;;;;14.88;7.25;;;;;;;11.01;100.00;96804.41;10496394;28;20555;-75
2022/10/31 18:23:20;;;;;;;16.77;7.10;;;;;;;10.95;100.00;96800.63;10496989;28;20202;-74
2022/10/31 18:28:20;;;;;;;17.70;7.35;;;;;;;10.91;100.00;96798.47;10497435;28;20229;-74
2022/10/31 18:33:20;;;;;;;18.53;7.43;;;;;;;10.92;100.00;96790.47;10478693;28;20198;-75
2022/10/31 18:38:21;;;;;;;15.43;6.80;;;;;;;10.73;100.00;96786.25;10496788;28;20203;-75
2022/10/31 18:43:22;;;;;;;14.53;6.37;;;;;;;10.60;100.00;96786.69;10493850;28;20601;-75
2022/10/31 18:48:22;;;;;;;18.97;7.33;;;;;;;10.51;100.00;96792.84;10496014;28;20284;-74
2022/10/31 18:53:23;;;;;;;20.87;7.27;;;;;;;10.52;100.00;96786.63;10494609;28;20695;-75
2022/10/31 18:58:25;;;;;;;11.93;5.60;;;;;;;10.41;100.00;96779.03;10494646;28;20252;-75
2022/10/31 19:03:26;;;;;;;10.53;5.03;;;;;;;10.36;100.00;96774.25;10495641;28;20199;-75
2022/10/31 19:08:26;;;;;;;15.77;4.57;;;;;;;10.23;100.00;96764.16;10495301;28;20292;-75
2022/10/31 19:13:27;;;;;;;12.47;5.13;;;;;;;10.13;100.00;96756.38;10495213;28;20221;-75
2022/10/31 19:18:27;;;;;;;11.73;5.00;;;;;;;10.24;100.00;96754.50;10495549;28;20175;-75
2022/10/31 19:23:27;;;;;;;17.17;5.70;;;;;;;10.17;100.00;96754.31;10494902;28;20654;-75
2022/10/31 19:28:30;;;;;;;13.73;4.73;;;;;;;10.05;100.00;96755.53;10494921;28;20298;-76
2022/10/31 19:33:30;;;;;;;11.93;4.80;;;;;;;10.03;100.00;96755.69;10494776;28;20674;-75
2022/10/31 19:38:32;;;;;;;10.30;4.73;;;;;;;10.05;100.00;96748.47;10494238;28;20238;-75
2022/10/31 19:43:33;;;;;;;13.40;4.90;;;;;;;9.94;100.00;96740.88;10494327;28;20255;-75
2022/10/31 19:48:37;;;;;;;11.83;3.97;;;;;;;9.95;100.00;96738.13;10493522;28;20433;-75
2022/10/31 19:53:38;;;;;;;12.40;5.60;;;;;;;9.70;100.00;96721.38;10492772;28;20231;-75
2022/10/31 19:58:39;;;;;;;11.87;4.80;;;;;;;9.58;100.00;96715.53;10493635;28;20205;-75
2022/10/31 20:03:41;;;;;;;8.33;4.10;;;;;;;9.64;100.00;96717.56;10474887;28;20278;-75
2022/10/31 20:08:41;;;;;;;16.43;4.70;;;;;;;9.73;100.00;96710.63;10492119;28;20269;-75
2022/10/31 20:13:42;;;;;;;9.77;5.13;;;;;;;9.46;100.00;96714.97;10492309;28;20191;-75
2022/10/31 20:18:43;;;;;;;13.20;4.60;;;;;;;9.65;100.00;96705.31;10493013;28;20598;-75
2022/10/31 20:23:44;;;;;;;10.97;4.27;;;;;;;9.87;100.00;96711.88;10492037;28;20187;-75
2022/10/31 20:28:45;;;;;;;12.80;4.40;;;;;;;10.00;100.00;96699.22;10492309;28;20711;-75
2022/10/31 20:33:46;;;;;;;13.07;4.73;;;;;;;9.96;100.00;96695.25;10491907;28;20251;-75
2022/10/31 20:38:48;;;;;;;10.47;4.57;;;;;;;9.95;100.00;96693.63;10491519;28;20555;-75
2022/10/31 20:43:48;;;;;;;8.40;4.63;;;;;;;9.89;100.00;96681.16;10511469;28;20195;-75
2022/10/31 20:48:49;;;;;;;12.63;5.27;;;;;;;9.80;100.00;96682.88;10513906;28;20218;-75
2022/10/31 20:53:50;;;;;;;14.10;5.17;;;;;;;9.75;100.00;96679.06;10500089;28;20233;-75
2022/10/31 20:58:53;;;;;;;9.20;5.13;;;;;;;9.47;100.00;96676.56;10472937;28;20195;-75
2022/10/31 21:03:54;;;;;;;14.40;5.03;;;;;;;9.46;100.00;96667.06;10490709;28;20187;-75
2022/10/31 21:08:55;;;;;;;8.63;4.73;;;;;;;9.35;100.00;96667.31;10490148;28;20292;-75
2022/10/31 21:13:58;;;;;;;16.47;5.43;;;;;;;9.12;100.00;96662.50;10490549;28;20194;-75
2022/10/31 21:18:59;;;;;;;15.23;6.07;;;;;;;8.89;100.00;96655.09;10472349;28;20510;-75
2022/10/31 21:24:05;;;;;;;15.90;5.37;;;;;;;8.95;100.00;96658.09;10490053;28;20273;-75
2022/10/31 21:29:07;;;;;;;10.50;5.13;;;;;;;9.10;100.00;96661.84;10490768;28;20223;-75
2022/10/31 21:34:08;;;;;;;10.63;5.10;;;;;;;9.41;100.00;96648.41;10455578;28;20252;-74
2022/10/31 21:39:09;;;;;;;11.83;5.17;;;;;;;9.30;100.00;96646.84;10472663;28;20207;-74
2022/10/31 21:44:09;;;;;;;14.17;5.20;;;;;;;9.26;100.00;96635.88;10471872;28;20191;-75
2022/10/31 21:49:10;;;;;;;11.73;5.50;;;;;;;9.35;100.00;96641.16;10490429;28;20744;-75
2022/10/31 21:54:26;;;;;;;14.67;5.60;;;;;;;9.72;100.00;96640.94;10489907;28;20537;-74
2022/10/31 21:59:27;;;;;;;10.13;5.17;;;;;;;10.13;100.00;96616.84;10490320;28;20287;-74
2022/10/31 22:04:27;;;;;;;14.03;4.90;;;;;;;10.73;100.00;96604.66;10490172;28;20715;-75
2022/10/31 22:09:28;;;;;;;24.83;6.60;;;;;;;10.62;100.00;96597.91;10489713;28;20254;-74
2022/10/31 22:14:28;;;;;;;12.00;5.17;;;;;;;10.43;100.00;96601.59;10490126;28;20186;-75
2022/10/31 22:19:28;;;;;;;10.10;5.10;;;;;;;10.47;100.00;96602.94;10489954;28;20198;-74
2022/10/31 22:24:29;;;;;;;11.53;5.40;;;;;;;10.40;100.00;96607.16;10489158;28;20702;-75
2022/10/31 22:29:29;;;;;;;13.53;5.10;;;;;;;10.10;100.00;96610.09;10493623;28;20584;-75
2022/10/31 22:34:29;;;;;;;9.73;5.23;;;;;;;9.40;100.00;96608.38;10496362;28;20203;-75
2022/10/31 22:39:31;;;;;;;12.50;5.57;;;;;;;9.49;100.00;96608.44;10496944;28;20233;-74
2022/10/31 22:44:31;;;;;;;12.57;5.40;;;;;;;9.28;100.00;96599.94;10496200;28;20195;-75
2022/10/31 22:49:32;;;;;;;9.07;5.03;;;;;;;9.00;100.00;96585.31;10496207;28;20231;-75
2022/10/31 22:54:33;;;;;;;12.90;5.20;;;;;;;9.03;100.00;96588.44;10495735;28;20253;-75
2022/10/31 22:59:33;;;;;;;15.17;5.13;;;;;;;8.92;100.00;96576.44;10496068;28;20198;-74
2022/10/31 23:04:34;;;;;;;16.40;6.07;;;;;;;8.74;100.00;96568.59;10495789;28;20183;-75
2022/10/31 23:09:34;;;;;;;13.00;5.13;;;;;;;8.67;100.00;96566.75;10495693;28;20211;-74
2022/10/31 23:14:35;;;;;;;15.27;5.77;;;;;;;8.66;100.00;96573.72;10495163;28;20187;-75
2022/10/31 23:19:35;;;;;;;11.63;5.70;;;;;;;8.44;100.00;96571.53;10495329;28;20221;-75
2022/10/31 23:24:42;;;;;;;9.90;5.40;;;;;;;8.31;100.00;96564.03;10494551;28;20197;-75
2022/10/31 23:29:46;;;;;;;14.40;5.10;;;;;;;8.08;100.00;96553.97;10495000;28;20223;-75
2022/10/31 23:34:48;;;;;;;13.60;5.23;;;;;;;7.98;100.00;96545.41;10494530;28;20289;-75
2022/10/31 23:39:49;;;;;;;11.67;5.67;;;;;;;7.84;100.00;96539.69;10493755;28;20250;-75
2022/10/31 23:44:50;;;;;;;14.50;5.00;;;;;;;7.71;100.00;96539.16;10494736;28;20277;-75
2022/10/31 23:49:50;;;;;;;15.93;5.70;;;;;;;7.62;100.00;96534.81;10493948;28;20215;-75
2022/10/31 23:54:50;;;;;;;10.47;5.50;;;;;;;7.56;100.00;96525.75;10493398;28;20314;-75